sensor_id;sensor_type;location;lat;lon;timestamp;P1;durP1;ratioP1;P2;durP2;ratioP2
22606;SDS011;11470;20.968;105.834;2024-03-25T00:00:59;27.40;;;22.58;;
22606;SDS011;11470;20.968;105.834;2024-03-25T00:06:03;31.83;;;23.80;;
22606;SDS011;11470;20.968;105.834;2024-03-25T00:11:06;48.55;;;33.17;;
22606;SDS011;11470;20.968;105.834;2024-03-25T00:16:10;36.97;;;26.40;;
22606;SDS011;11470;20.968;105.834;2024-03-25T00:21:14;45.97;;;31.33;;
22606;SDS011;11470;20.968;105.834;2024-03-25T00:26:17;51.08;;;31.55;;
22606;SDS011;11470;20.968;105.834;2024-03-25T00:31:20;43.70;;;30.13;;
22606;SDS011;11470;20.968;105.834;2024-03-25T00:36:24;46.88;;;32.42;;
22606;SDS011;11470;20.968;105.834;2024-03-25T00:41:28;49.22;;;31.02;;
22606;SDS011;11470;20.968;105.834;2024-03-25T00:46:31;46.53;;;29.63;;
22606;SDS011;11470;20.968;105.834;2024-03-25T00:51:35;30.70;;;22.85;;
22606;SDS011;11470;20.968;105.834;2024-03-25T00:56:38;44.53;;;30.60;;
22606;SDS011;11470;20.968;105.834;2024-03-25T01:01:42;32.60;;;22.52;;
22606;SDS011;11470;20.968;105.834;2024-03-25T01:06:45;43.22;;;28.55;;
22606;SDS011;11470;20.968;105.834;2024-03-25T01:11:49;39.50;;;26.08;;
22606;SDS011;11470;20.968;105.834;2024-03-25T01:16:52;41.25;;;27.65;;
22606;SDS011;11470;20.968;105.834;2024-03-25T01:21:56;57.45;;;32.35;;
22606;SDS011;11470;20.968;105.834;2024-03-25T01:27:00;49.83;;;30.52;;
22606;SDS011;11470;20.968;105.834;2024-03-25T01:32:04;60.53;;;37.27;;
22606;SDS011;11470;20.968;105.834;2024-03-25T01:37:08;61.53;;;34.63;;
22606;SDS011;11470;20.968;105.834;2024-03-25T01:42:13;64.13;;;38.40;;
22606;SDS011;11470;20.968;105.834;2024-03-25T01:47:16;51.08;;;32.38;;
22606;SDS011;11470;20.968;105.834;2024-03-25T01:52:20;49.38;;;32.45;;
22606;SDS011;11470;20.968;105.834;2024-03-25T01:57:26;45.70;;;27.15;;
22606;SDS011;11470;20.968;105.834;2024-03-25T02:02:30;42.50;;;26.70;;
22606;SDS011;11470;20.968;105.834;2024-03-25T02:07:36;63.17;;;40.03;;
22606;SDS011;11470;20.968;105.834;2024-03-25T02:12:44;54.80;;;37.67;;
22606;SDS011;11470;20.968;105.834;2024-03-25T02:17:48;44.55;;;31.10;;
22606;SDS011;11470;20.968;105.834;2024-03-25T02:22:51;53.97;;;33.63;;
22606;SDS011;11470;20.968;105.834;2024-03-25T02:27:55;54.22;;;35.50;;
22606;SDS011;11470;20.968;105.834;2024-03-25T02:32:59;43.88;;;28.30;;
22606;SDS011;11470;20.968;105.834;2024-03-25T02:38:03;55.60;;;32.47;;
22606;SDS011;11470;20.968;105.834;2024-03-25T02:43:07;44.40;;;28.17;;
22606;SDS011;11470;20.968;105.834;2024-03-25T02:48:13;41.10;;;29.53;;
22606;SDS011;11470;20.968;105.834;2024-03-25T02:53:16;59.03;;;38.83;;
22606;SDS011;11470;20.968;105.834;2024-03-25T02:58:20;42.63;;;27.60;;
22606;SDS011;11470;20.968;105.834;2024-03-25T03:03:23;35.13;;;24.55;;
22606;SDS011;11470;20.968;105.834;2024-03-25T03:08:27;45.63;;;30.58;;
22606;SDS011;11470;20.968;105.834;2024-03-25T03:13:31;41.53;;;28.02;;
22606;SDS011;11470;20.968;105.834;2024-03-25T03:18:35;37.08;;;22.60;;
22606;SDS011;11470;20.968;105.834;2024-03-25T03:23:39;46.27;;;30.80;;
22606;SDS011;11470;20.968;105.834;2024-03-25T03:28:43;24.60;;;18.05;;
22606;SDS011;11470;20.968;105.834;2024-03-25T03:33:46;24.02;;;18.40;;
22606;SDS011;11470;20.968;105.834;2024-03-25T03:38:53;28.10;;;20.80;;
22606;SDS011;11470;20.968;105.834;2024-03-25T03:43:56;24.98;;;18.30;;
22606;SDS011;11470;20.968;105.834;2024-03-25T03:49:00;22.08;;;16.25;;
22606;SDS011;11470;20.968;105.834;2024-03-25T03:54:03;31.75;;;22.83;;
22606;SDS011;11470;20.968;105.834;2024-03-25T03:59:07;19.67;;;15.65;;
22606;SDS011;11470;20.968;105.834;2024-03-25T04:04:10;22.05;;;16.23;;
22606;SDS011;11470;20.968;105.834;2024-03-25T04:09:14;30.27;;;22.48;;
22606;SDS011;11470;20.968;105.834;2024-03-25T04:14:17;21.05;;;16.67;;
22606;SDS011;11470;20.968;105.834;2024-03-25T04:19:24;28.33;;;22.27;;
22606;SDS011;11470;20.968;105.834;2024-03-25T04:24:29;33.03;;;24.23;;
22606;SDS011;11470;20.968;105.834;2024-03-25T04:29:32;23.58;;;18.92;;
22606;SDS011;11470;20.968;105.834;2024-03-25T04:34:36;31.58;;;24.23;;
22606;SDS011;11470;20.968;105.834;2024-03-25T04:39:39;32.55;;;24.15;;
22606;SDS011;11470;20.968;105.834;2024-03-25T04:44:44;22.63;;;16.95;;
22606;SDS011;11470;20.968;105.834;2024-03-25T04:49:48;38.80;;;27.75;;
22606;SDS011;11470;20.968;105.834;2024-03-25T04:54:51;38.67;;;25.52;;
22606;SDS011;11470;20.968;105.834;2024-03-25T04:59:55;25.75;;;17.13;;
22606;SDS011;11470;20.968;105.834;2024-03-25T05:04:58;39.78;;;26.30;;
22606;SDS011;11470;20.968;105.834;2024-03-25T05:10:10;33.67;;;22.05;;
22606;SDS011;11470;20.968;105.834;2024-03-25T05:15:37;28.83;;;17.70;;
22606;SDS011;11470;20.968;105.834;2024-03-25T05:20:40;34.92;;;24.85;;
22606;SDS011;11470;20.968;105.834;2024-03-25T05:25:44;36.95;;;26.17;;
22606;SDS011;11470;20.968;105.834;2024-03-25T05:30:48;33.13;;;24.33;;
22606;SDS011;11470;20.968;105.834;2024-03-25T05:35:51;44.83;;;33.05;;
22606;SDS011;11470;20.968;105.834;2024-03-25T05:40:55;40.50;;;30.83;;
22606;SDS011;11470;20.968;105.834;2024-03-25T05:45:58;43.72;;;34.88;;
22606;SDS011;11470;20.968;105.834;2024-03-25T05:51:03;38.65;;;29.33;;
22606;SDS011;11470;20.968;105.834;2024-03-25T05:56:07;34.53;;;25.23;;
22606;SDS011;11470;20.968;105.834;2024-03-25T06:01:11;42.85;;;28.20;;
22606;SDS011;11470;20.968;105.834;2024-03-25T06:06:14;39.30;;;29.55;;
22606;SDS011;11470;20.968;105.834;2024-03-25T06:11:19;35.33;;;28.92;;
22606;SDS011;11470;20.968;105.834;2024-03-25T06:16:31;50.63;;;38.28;;
22606;SDS011;11470;20.968;105.834;2024-03-25T06:21:35;44.00;;;33.60;;
22606;SDS011;11470;20.968;105.834;2024-03-25T06:26:38;38.15;;;29.35;;
22606;SDS011;11470;20.968;105.834;2024-03-25T06:31:42;28.23;;;23.85;;
22606;SDS011;11470;20.968;105.834;2024-03-25T06:37:03;36.70;;;27.85;;
22606;SDS011;11470;20.968;105.834;2024-03-25T06:42:07;34.38;;;25.00;;
22606;SDS011;11470;20.968;105.834;2024-03-25T06:47:10;32.17;;;25.25;;
22606;SDS011;11470;20.968;105.834;2024-03-25T06:52:14;36.85;;;27.55;;
22606;SDS011;11470;20.968;105.834;2024-03-25T06:57:17;28.98;;;23.25;;
22606;SDS011;11470;20.968;105.834;2024-03-25T07:02:21;33.60;;;24.52;;
22606;SDS011;11470;20.968;105.834;2024-03-25T07:07:24;31.25;;;21.80;;
22606;SDS011;11470;20.968;105.834;2024-03-25T07:12:28;30.73;;;22.35;;
22606;SDS011;11470;20.968;105.834;2024-03-25T07:17:31;32.22;;;23.08;;
22606;SDS011;11470;20.968;105.834;2024-03-25T07:22:35;33.88;;;22.95;;
22606;SDS011;11470;20.968;105.834;2024-03-25T07:27:41;34.08;;;23.20;;
22606;SDS011;11470;20.968;105.834;2024-03-25T07:32:46;32.42;;;22.42;;
22606;SDS011;11470;20.968;105.834;2024-03-25T07:37:49;25.83;;;20.38;;
22606;SDS011;11470;20.968;105.834;2024-03-25T07:42:53;29.08;;;21.67;;
22606;SDS011;11470;20.968;105.834;2024-03-25T07:47:58;29.57;;;22.37;;
22606;SDS011;11470;20.968;105.834;2024-03-25T07:53:01;100.05;;;53.20;;
22606;SDS011;11470;20.968;105.834;2024-03-25T07:58:05;70.20;;;34.70;;
22606;SDS011;11470;20.968;105.834;2024-03-25T08:03:10;37.00;;;23.40;;
22606;SDS011;11470;20.968;105.834;2024-03-25T08:08:14;39.38;;;25.80;;
22606;SDS011;11470;20.968;105.834;2024-03-25T08:13:18;65.13;;;34.95;;
22606;SDS011;11470;20.968;105.834;2024-03-25T08:18:22;78.70;;;41.88;;
22606;SDS011;11470;20.968;105.834;2024-03-25T08:23:25;53.22;;;29.50;;
22606;SDS011;11470;20.968;105.834;2024-03-25T08:28:30;42.38;;;25.92;;
22606;SDS011;11470;20.968;105.834;2024-03-25T08:33:33;46.47;;;29.05;;
22606;SDS011;11470;20.968;105.834;2024-03-25T08:38:37;43.85;;;28.05;;
22606;SDS011;11470;20.968;105.834;2024-03-25T08:43:41;46.60;;;28.63;;
22606;SDS011;11470;20.968;105.834;2024-03-25T08:48:45;40.80;;;27.55;;
22606;SDS011;11470;20.968;105.834;2024-03-25T08:53:51;85.75;;;46.17;;
22606;SDS011;11470;20.968;105.834;2024-03-25T08:58:55;55.55;;;35.38;;
22606;SDS011;11470;20.968;105.834;2024-03-25T09:03:59;51.35;;;31.63;;
22606;SDS011;11470;20.968;105.834;2024-03-25T09:09:06;65.90;;;40.40;;
22606;SDS011;11470;20.968;105.834;2024-03-25T09:14:30;88.13;;;49.78;;
22606;SDS011;11470;20.968;105.834;2024-03-25T09:19:36;57.83;;;35.72;;
22606;SDS011;11470;20.968;105.834;2024-03-25T09:24:39;55.30;;;35.50;;
22606;SDS011;11470;20.968;105.834;2024-03-25T09:29:43;56.78;;;36.55;;
22606;SDS011;11470;20.968;105.834;2024-03-25T09:34:46;52.53;;;32.95;;
22606;SDS011;11470;20.968;105.834;2024-03-25T09:39:52;76.63;;;44.17;;
22606;SDS011;11470;20.968;105.834;2024-03-25T09:44:55;72.00;;;41.92;;
22606;SDS011;11470;20.968;105.834;2024-03-25T09:50:02;48.40;;;31.02;;
22606;SDS011;11470;20.968;105.834;2024-03-25T09:55:10;53.38;;;34.92;;
22606;SDS011;11470;20.968;105.834;2024-03-25T10:00:13;50.88;;;34.40;;
22606;SDS011;11470;20.968;105.834;2024-03-25T10:05:17;62.63;;;37.95;;
22606;SDS011;11470;20.968;105.834;2024-03-25T10:10:22;58.65;;;34.60;;
22606;SDS011;11470;20.968;105.834;2024-03-25T10:15:26;44.17;;;29.55;;
22606;SDS011;11470;20.968;105.834;2024-03-25T10:20:30;61.57;;;36.23;;
22606;SDS011;11470;20.968;105.834;2024-03-25T10:25:34;61.58;;;38.13;;
22606;SDS011;11470;20.968;105.834;2024-03-25T10:30:38;89.22;;;56.17;;
22606;SDS011;11470;20.968;105.834;2024-03-25T10:35:43;118.38;;;57.60;;
22606;SDS011;11470;20.968;105.834;2024-03-25T10:40:53;63.20;;;35.88;;
22606;SDS011;11470;20.968;105.834;2024-03-25T10:45:59;55.00;;;34.88;;
22606;SDS011;11470;20.968;105.834;2024-03-25T10:51:03;52.15;;;32.55;;
22606;SDS011;11470;20.968;105.834;2024-03-25T10:56:08;51.50;;;31.30;;
22606;SDS011;11470;20.968;105.834;2024-03-25T11:01:18;54.17;;;34.05;;
22606;SDS011;11470;20.968;105.834;2024-03-25T11:06:22;121.05;;;58.65;;
22606;SDS011;11470;20.968;105.834;2024-03-25T11:11:34;86.60;;;47.22;;
22606;SDS011;11470;20.968;105.834;2024-03-25T11:16:38;46.75;;;31.50;;
22606;SDS011;11470;20.968;105.834;2024-03-25T11:21:42;61.17;;;36.08;;
22606;SDS011;11470;20.968;105.834;2024-03-25T11:26:46;42.65;;;27.10;;
22606;SDS011;11470;20.968;105.834;2024-03-25T11:31:55;44.45;;;29.58;;
22606;SDS011;11470;20.968;105.834;2024-03-25T11:37:01;48.97;;;30.38;;
22606;SDS011;11470;20.968;105.834;2024-03-25T11:42:05;96.13;;;53.28;;
22606;SDS011;11470;20.968;105.834;2024-03-25T11:47:11;72.53;;;42.85;;
22606;SDS011;11470;20.968;105.834;2024-03-25T11:52:15;62.58;;;39.08;;
22606;SDS011;11470;20.968;105.834;2024-03-25T11:57:18;51.28;;;33.28;;
22606;SDS011;11470;20.968;105.834;2024-03-25T12:02:21;50.70;;;31.23;;
22606;SDS011;11470;20.968;105.834;2024-03-25T12:07:25;35.75;;;19.00;;
22606;SDS011;11470;20.968;105.834;2024-03-25T12:12:29;52.75;;;33.95;;
22606;SDS011;11470;20.968;105.834;2024-03-25T12:17:33;56.47;;;35.50;;
22606;SDS011;11470;20.968;105.834;2024-03-25T12:22:37;55.42;;;36.30;;
22606;SDS011;11470;20.968;105.834;2024-03-25T12:27:41;59.03;;;38.80;;
22606;SDS011;11470;20.968;105.834;2024-03-25T12:32:50;62.15;;;39.83;;
22606;SDS011;11470;20.968;105.834;2024-03-25T12:37:54;49.85;;;31.65;;
22606;SDS011;11470;20.968;105.834;2024-03-25T12:42:58;56.33;;;36.45;;
22606;SDS011;11470;20.968;105.834;2024-03-25T12:48:02;59.42;;;35.97;;
22606;SDS011;11470;20.968;105.834;2024-03-25T12:53:05;49.72;;;28.92;;
22606;SDS011;11470;20.968;105.834;2024-03-25T12:58:09;53.55;;;33.80;;
22606;SDS011;11470;20.968;105.834;2024-03-25T13:03:13;57.90;;;37.03;;
22606;SDS011;11470;20.968;105.834;2024-03-25T13:08:17;47.53;;;29.17;;
22606;SDS011;11470;20.968;105.834;2024-03-25T13:13:21;50.15;;;33.60;;
22606;SDS011;11470;20.968;105.834;2024-03-25T13:18:24;46.20;;;30.80;;
22606;SDS011;11470;20.968;105.834;2024-03-25T13:23:28;49.03;;;31.25;;
22606;SDS011;11470;20.968;105.834;2024-03-25T13:28:32;47.10;;;29.65;;
22606;SDS011;11470;20.968;105.834;2024-03-25T13:33:35;57.97;;;36.22;;
22606;SDS011;11470;20.968;105.834;2024-03-25T13:38:39;58.28;;;36.60;;
22606;SDS011;11470;20.968;105.834;2024-03-25T13:43:42;42.92;;;19.08;;
22606;SDS011;11470;20.968;105.834;2024-03-25T13:48:49;40.83;;;20.38;;
22606;SDS011;11470;20.968;105.834;2024-03-25T13:53:53;55.80;;;33.78;;
22606;SDS011;11470;20.968;105.834;2024-03-25T13:58:56;52.20;;;30.83;;
22606;SDS011;11470;20.968;105.834;2024-03-25T14:04:01;60.95;;;36.45;;
22606;SDS011;11470;20.968;105.834;2024-03-25T14:09:05;35.55;;;19.98;;
22606;SDS011;11470;20.968;105.834;2024-03-25T14:14:12;61.03;;;29.60;;
22606;SDS011;11470;20.968;105.834;2024-03-25T14:19:15;64.93;;;34.17;;
22606;SDS011;11470;20.968;105.834;2024-03-25T14:24:19;54.10;;;28.98;;
22606;SDS011;11470;20.968;105.834;2024-03-25T14:29:22;61.70;;;32.25;;
22606;SDS011;11470;20.968;105.834;2024-03-25T14:34:26;64.57;;;33.05;;
22606;SDS011;11470;20.968;105.834;2024-03-25T14:39:31;65.25;;;37.75;;
22606;SDS011;11470;20.968;105.834;2024-03-25T14:44:37;63.50;;;37.00;;
22606;SDS011;11470;20.968;105.834;2024-03-25T14:49:40;53.35;;;32.60;;
22606;SDS011;11470;20.968;105.834;2024-03-25T14:54:44;55.08;;;36.10;;
22606;SDS011;11470;20.968;105.834;2024-03-25T14:59:48;58.20;;;35.53;;
22606;SDS011;11470;20.968;105.834;2024-03-25T15:04:51;63.13;;;39.30;;
22606;SDS011;11470;20.968;105.834;2024-03-25T15:09:56;58.22;;;36.35;;
22606;SDS011;11470;20.968;105.834;2024-03-25T15:15:02;45.67;;;24.02;;
22606;SDS011;11470;20.968;105.834;2024-03-25T15:20:08;57.55;;;36.45;;
22606;SDS011;11470;20.968;105.834;2024-03-25T15:25:12;29.25;;;15.15;;
22606;SDS011;11470;20.968;105.834;2024-03-25T15:30:17;59.45;;;35.65;;
22606;SDS011;11470;20.968;105.834;2024-03-25T15:35:20;56.78;;;33.28;;
22606;SDS011;11470;20.968;105.834;2024-03-25T15:40:24;38.28;;;14.63;;
22606;SDS011;11470;20.968;105.834;2024-03-25T15:45:28;35.03;;;21.60;;
22606;SDS011;11470;20.968;105.834;2024-03-25T15:50:32;56.80;;;34.95;;
22606;SDS011;11470;20.968;105.834;2024-03-25T15:55:35;59.35;;;34.53;;
22606;SDS011;11470;20.968;105.834;2024-03-25T16:00:39;64.20;;;35.58;;
22606;SDS011;11470;20.968;105.834;2024-03-25T16:05:42;51.42;;;28.10;;
22606;SDS011;11470;20.968;105.834;2024-03-25T16:10:46;66.55;;;39.60;;
22606;SDS011;11470;20.968;105.834;2024-03-25T16:16:07;81.32;;;49.08;;
22606;SDS011;11470;20.968;105.834;2024-03-25T16:21:15;70.70;;;41.97;;
22606;SDS011;11470;20.968;105.834;2024-03-25T16:26:22;73.43;;;43.78;;
22606;SDS011;11470;20.968;105.834;2024-03-25T16:31:26;64.28;;;43.08;;
22606;SDS011;11470;20.968;105.834;2024-03-25T16:36:29;62.08;;;43.10;;
22606;SDS011;11470;20.968;105.834;2024-03-25T16:41:34;76.38;;;46.10;;
22606;SDS011;11470;20.968;105.834;2024-03-25T16:46:37;67.22;;;46.70;;
22606;SDS011;11470;20.968;105.834;2024-03-25T16:51:41;62.70;;;36.08;;
22606;SDS011;11470;20.968;105.834;2024-03-25T16:56:44;66.45;;;46.33;;
22606;SDS011;11470;20.968;105.834;2024-03-25T17:01:48;73.50;;;47.50;;
22606;SDS011;11470;20.968;105.834;2024-03-25T17:06:51;59.80;;;40.40;;
22606;SDS011;11470;20.968;105.834;2024-03-25T17:11:55;58.67;;;41.75;;
22606;SDS011;11470;20.968;105.834;2024-03-25T17:16:58;67.97;;;47.40;;
22606;SDS011;11470;20.968;105.834;2024-03-25T17:22:02;61.90;;;41.25;;
22606;SDS011;11470;20.968;105.834;2024-03-25T17:27:06;65.13;;;44.15;;
22606;SDS011;11470;20.968;105.834;2024-03-25T17:32:09;67.75;;;45.03;;
22606;SDS011;11470;20.968;105.834;2024-03-25T17:37:13;67.15;;;44.90;;
22606;SDS011;11470;20.968;105.834;2024-03-25T17:42:16;62.00;;;42.90;;
22606;SDS011;11470;20.968;105.834;2024-03-25T17:47:20;57.03;;;41.38;;
22606;SDS011;11470;20.968;105.834;2024-03-25T17:52:24;58.38;;;41.65;;
22606;SDS011;11470;20.968;105.834;2024-03-25T17:57:27;61.30;;;40.35;;
22606;SDS011;11470;20.968;105.834;2024-03-25T18:02:31;52.13;;;40.67;;
22606;SDS011;11470;20.968;105.834;2024-03-25T18:07:34;68.07;;;43.92;;
22606;SDS011;11470;20.968;105.834;2024-03-25T18:12:39;58.20;;;41.88;;
22606;SDS011;11470;20.968;105.834;2024-03-25T18:17:43;72.75;;;44.65;;
22606;SDS011;11470;20.968;105.834;2024-03-25T18:22:48;70.53;;;45.88;;
22606;SDS011;11470;20.968;105.834;2024-03-25T18:27:53;86.43;;;55.90;;
22606;SDS011;11470;20.968;105.834;2024-03-25T18:32:57;75.28;;;50.85;;
22606;SDS011;11470;20.968;105.834;2024-03-25T18:38:02;72.88;;;49.15;;
22606;SDS011;11470;20.968;105.834;2024-03-25T18:43:06;70.70;;;46.13;;
22606;SDS011;11470;20.968;105.834;2024-03-25T18:48:09;65.20;;;42.50;;
22606;SDS011;11470;20.968;105.834;2024-03-25T18:53:13;58.53;;;42.22;;
22606;SDS011;11470;20.968;105.834;2024-03-25T18:58:17;55.45;;;39.35;;
22606;SDS011;11470;20.968;105.834;2024-03-25T19:03:21;57.95;;;39.97;;
22606;SDS011;11470;20.968;105.834;2024-03-25T19:08:24;55.03;;;40.05;;
22606;SDS011;11470;20.968;105.834;2024-03-25T19:13:29;60.33;;;40.20;;
22606;SDS011;11470;20.968;105.834;2024-03-25T19:18:32;71.18;;;46.95;;
22606;SDS011;11470;20.968;105.834;2024-03-25T19:23:36;58.38;;;40.53;;
22606;SDS011;11470;20.968;105.834;2024-03-25T19:28:39;61.20;;;43.15;;
22606;SDS011;11470;20.968;105.834;2024-03-25T19:33:44;55.58;;;39.78;;
22606;SDS011;11470;20.968;105.834;2024-03-25T19:38:47;52.40;;;39.78;;
22606;SDS011;11470;20.968;105.834;2024-03-25T19:43:51;65.75;;;45.97;;
22606;SDS011;11470;20.968;105.834;2024-03-25T19:48:54;52.10;;;37.45;;
22606;SDS011;11470;20.968;105.834;2024-03-25T19:53:58;55.47;;;39.58;;
22606;SDS011;11470;20.968;105.834;2024-03-25T19:59:01;62.60;;;43.17;;
22606;SDS011;11470;20.968;105.834;2024-03-25T20:04:05;57.08;;;41.38;;
22606;SDS011;11470;20.968;105.834;2024-03-25T20:09:08;67.32;;;47.60;;
22606;SDS011;11470;20.968;105.834;2024-03-25T20:14:12;89.78;;;59.13;;
22606;SDS011;11470;20.968;105.834;2024-03-25T20:19:18;55.78;;;41.88;;
22606;SDS011;11470;20.968;105.834;2024-03-25T20:24:27;74.50;;;49.30;;
22606;SDS011;11470;20.968;105.834;2024-03-25T20:29:31;74.28;;;49.42;;
22606;SDS011;11470;20.968;105.834;2024-03-25T20:34:34;60.13;;;42.28;;
22606;SDS011;11470;20.968;105.834;2024-03-25T20:39:38;59.50;;;41.22;;
22606;SDS011;11470;20.968;105.834;2024-03-25T20:44:42;61.00;;;42.42;;
22606;SDS011;11470;20.968;105.834;2024-03-25T20:49:45;61.67;;;41.42;;
22606;SDS011;11470;20.968;105.834;2024-03-25T20:54:48;52.92;;;37.58;;
22606;SDS011;11470;20.968;105.834;2024-03-25T20:59:53;52.00;;;37.63;;
22606;SDS011;11470;20.968;105.834;2024-03-25T21:04:59;53.15;;;36.55;;
22606;SDS011;11470;20.968;105.834;2024-03-25T21:10:02;46.65;;;34.50;;
22606;SDS011;11470;20.968;105.834;2024-03-25T21:15:07;45.58;;;34.28;;
22606;SDS011;11470;20.968;105.834;2024-03-25T21:20:11;48.47;;;35.17;;
22606;SDS011;11470;20.968;105.834;2024-03-25T21:25:16;51.22;;;36.92;;
22606;SDS011;11470;20.968;105.834;2024-03-25T21:30:19;57.58;;;36.17;;
22606;SDS011;11470;20.968;105.834;2024-03-25T21:35:22;97.65;;;83.50;;
22606;SDS011;11470;20.968;105.834;2024-03-25T21:40:26;56.40;;;41.70;;
22606;SDS011;11470;20.968;105.834;2024-03-25T21:45:31;59.42;;;44.75;;
22606;SDS011;11470;20.968;105.834;2024-03-25T21:50:34;59.40;;;46.08;;
22606;SDS011;11470;20.968;105.834;2024-03-25T21:55:43;74.97;;;55.75;;
22606;SDS011;11470;20.968;105.834;2024-03-25T22:01:24;59.60;;;44.70;;
22606;SDS011;11470;20.968;105.834;2024-03-25T22:06:28;50.92;;;38.00;;
22606;SDS011;11470;20.968;105.834;2024-03-25T22:11:31;55.58;;;40.28;;
22606;SDS011;11470;20.968;105.834;2024-03-25T22:16:34;52.03;;;39.13;;
22606;SDS011;11470;20.968;105.834;2024-03-25T22:21:38;56.80;;;38.38;;
22606;SDS011;11470;20.968;105.834;2024-03-25T22:26:42;53.67;;;39.13;;
22606;SDS011;11470;20.968;105.834;2024-03-25T22:31:46;48.88;;;37.38;;
22606;SDS011;11470;20.968;105.834;2024-03-25T22:36:49;52.15;;;38.55;;
22606;SDS011;11470;20.968;105.834;2024-03-25T22:41:52;56.75;;;38.58;;
22606;SDS011;11470;20.968;105.834;2024-03-25T22:46:56;50.33;;;36.80;;
22606;SDS011;11470;20.968;105.834;2024-03-25T22:52:00;52.85;;;38.50;;
22606;SDS011;11470;20.968;105.834;2024-03-25T22:57:04;57.53;;;39.00;;
22606;SDS011;11470;20.968;105.834;2024-03-25T23:02:09;48.22;;;37.10;;
22606;SDS011;11470;20.968;105.834;2024-03-25T23:07:12;55.90;;;41.30;;
22606;SDS011;11470;20.968;105.834;2024-03-25T23:12:17;54.78;;;39.65;;
22606;SDS011;11470;20.968;105.834;2024-03-25T23:17:24;50.45;;;37.13;;
22606;SDS011;11470;20.968;105.834;2024-03-25T23:22:52;67.85;;;47.38;;
22606;SDS011;11470;20.968;105.834;2024-03-25T23:27:56;54.30;;;40.42;;
22606;SDS011;11470;20.968;105.834;2024-03-25T23:33:00;58.70;;;42.65;;
22606;SDS011;11470;20.968;105.834;2024-03-25T23:38:03;52.72;;;37.95;;
22606;SDS011;11470;20.968;105.834;2024-03-25T23:43:07;61.22;;;41.40;;
22606;SDS011;11470;20.968;105.834;2024-03-25T23:48:11;60.72;;;39.63;;
22606;SDS011;11470;20.968;105.834;2024-03-25T23:53:14;65.93;;;43.70;;
22606;SDS011;11470;20.968;105.834;2024-03-25T23:58:17;55.38;;;39.42;;
